createdAt,value
2022-11-30T00:52:25.205Z,101626.31
2022-11-30T01:29:51.760Z,101812.88
2022-11-30T01:34:53.874Z,101815.16
2022-11-30T01:37:20.535Z,101814.63
2022-11-30T01:39:47.321Z,101812.16
2022-11-30T01:42:19.383Z,101811.47
2022-11-30T01:44:57.985Z,101802.38
2022-11-30T01:47:31.584Z,101815.97
2022-11-30T01:50:38.828Z,101731.09
2022-11-30T01:53:09.512Z,101812.41
2022-11-30T01:55:40.342Z,101760.47
2022-11-30T01:58:18.410Z,101806.28
2022-11-30T02:00:50.474Z,101690.22
2022-11-30T02:03:43.080Z,101809.59
2022-11-30T02:06:31.773Z,101703.69
2022-11-30T02:09:01.081Z,101709.22
2022-11-30T02:11:31.642Z,101762.13
2022-11-30T02:14:16.943Z,101804.25
2022-11-30T02:17:02.517Z,101705.66
2022-11-30T02:19:44.916Z,101687.91
2022-11-30T02:22:33.235Z,101812.16
2022-11-30T02:25:22.110Z,101814.28
2022-11-30T02:28:02.282Z,101677.25
2022-11-30T02:30:37.606Z,101699.63
2022-11-30T02:33:29.992Z,101766.91
2022-11-30T02:54:46.864Z,101827.63
2022-11-30T02:57:16.991Z,101768.81
2022-11-30T03:54:36.472Z,101699.63
2022-11-30T04:02:24.640Z,101853.06
2022-11-30T04:12:55.793Z,101839.31
2022-11-30T04:15:22.500Z,101845.34
2022-11-30T04:36:35.591Z,101840.97
2022-11-30T04:39:02.222Z,101825.22
2022-11-30T04:41:29.071Z,101842.41
2022-11-30T04:43:55.840Z,101835.34
2022-11-30T04:46:22.483Z,101836.25
2022-11-30T04:48:49.192Z,101791.19
2022-11-30T04:51:15.869Z,101793.41
2022-11-30T04:53:42.544Z,101818.47
2022-11-30T06:16:12.086Z,101690.78
2022-11-30T06:18:39.130Z,101924.19
2022-11-30T06:21:09.163Z,101910.81
2022-11-30T06:23:36.435Z,101925.00
2022-11-30T06:26:05.290Z,101925.00
2022-11-30T06:28:32.296Z,101912.34
2022-11-30T06:31:03.681Z,101923.97
2022-11-30T06:33:37.083Z,101803.94
2022-11-30T06:36:05.322Z,101756.78
2022-11-30T06:38:32.457Z,101786.63
2022-11-30T06:41:14.757Z,101780.59
2022-11-30T06:43:54.256Z,101824.13
2022-11-30T06:46:22.323Z,101878.13
2022-11-30T06:48:52.575Z,101934.03
2022-11-30T06:51:19.686Z,101931.31
2022-11-30T06:53:47.195Z,101931.44
2022-11-30T07:36:36.991Z,101950.50
2022-11-30T07:39:04.619Z,101955.38
2022-11-30T07:41:31.389Z,101957.88
2022-11-30T07:43:58.168Z,101959.88
2022-11-30T07:46:24.831Z,101968.03
2022-11-30T07:48:51.476Z,101915.78
2022-11-30T07:51:21.439Z,101932.69
2022-11-30T07:53:48.819Z,101973.81
2022-11-30T09:01:54.677Z,102025.00
2022-11-30T09:04:21.605Z,101926.03
2022-11-30T09:06:48.852Z,101978.09
2022-11-30T09:09:15.770Z,101991.41
2022-11-30T09:11:42.681Z,101968.25
2022-11-30T09:14:10.100Z,101963.06
2022-11-30T09:16:37.079Z,101998.38
2022-11-30T09:19:50.815Z,102045.69
2022-11-30T09:22:18.523Z,102050.34
2022-11-30T09:24:45.870Z,102051.41
2022-11-30T09:27:13.217Z,102004.78
2022-11-30T09:29:40.376Z,102015.97
2022-11-30T09:32:07.186Z,101983.59
2022-11-30T09:34:39.801Z,102033.53
2022-11-30T09:37:06.699Z,102003.75
2022-11-30T09:40:01.286Z,102051.09
2022-11-30T09:43:01.916Z,102037.06
2022-11-30T09:45:31.876Z,102043.63
2022-11-30T09:48:27.774Z,102039.88
2022-11-30T09:50:55.074Z,102034.75
2022-11-30T09:53:29.746Z,102039.41
2022-11-30T09:55:58.941Z,102038.47
2022-11-30T09:58:39.871Z,102039.41
2022-11-30T10:01:15.960Z,102035.88
2022-11-30T10:03:43.080Z,101994.28
2022-11-30T10:06:19.181Z,101961.56
2022-11-30T10:09:05.402Z,102032.63
2022-11-30T10:11:52.381Z,102007.09
2022-11-30T10:14:55.878Z,102026.25
2022-11-30T10:17:37.712Z,101983.22
2022-11-30T10:24:29.150Z,101969.47
2022-11-30T10:26:57.910Z,102030.91
2022-11-30T10:29:35.426Z,102026.66
2022-11-30T10:32:21.090Z,102018.47
2022-11-30T10:34:54.189Z,102020.03
2022-11-30T10:37:23.780Z,102025.00
2022-11-30T10:40:22.061Z,102032.91
2022-11-30T10:42:55.617Z,102029.25
2022-11-30T10:45:24.537Z,102019.19
2022-11-30T10:48:03.925Z,102026.53
2022-11-30T10:50:31.771Z,102019.69
2022-11-30T10:53:00.248Z,102022.16
2022-11-30T10:55:34.498Z,102024.06
2022-11-30T10:58:08.034Z,102008.66
2022-11-30T11:00:34.787Z,102020.50
2022-11-30T11:03:01.564Z,102025.50
2022-11-30T11:05:30.056Z,102031.31
2022-11-30T11:08:06.757Z,102019.81
2022-11-30T11:10:33.867Z,102021.56
2022-11-30T11:13:00.622Z,102024.72
2022-11-30T11:15:32.624Z,102030.63
2022-11-30T11:18:22.826Z,102023.50
2022-11-30T11:21:06.312Z,102008.75
2022-11-30T11:23:39.849Z,102009.00
2022-11-30T11:26:16.048Z,102029.13
2022-11-30T11:28:45.885Z,102030.91
2022-11-30T11:31:44.454Z,102029.72
2022-11-30T11:34:34.635Z,102035.78
2022-11-30T11:37:46.744Z,102038.88
2022-11-30T11:40:16.360Z,102036.50
2022-11-30T11:42:47.773Z,102029.13
2022-11-30T11:45:23.667Z,102037.75
2022-11-30T11:48:00.355Z,102044.50
2022-11-30T11:51:04.454Z,102038.59
2022-11-30T11:53:24.154Z,102051.59
2022-11-30T11:55:57.487Z,102047.44
2022-11-30T11:58:37.311Z,102035.69
2022-11-30T12:01:38.654Z,102050.03
2022-11-30T12:04:12.962Z,102048.25
2022-11-30T12:06:42.424Z,102032.59
2022-11-30T12:09:16.434Z,102051.19
2022-11-30T12:11:46.146Z,102051.09
2022-11-30T12:14:15.727Z,102051.09
2022-11-30T12:17:19.846Z,102052.88
2022-11-30T12:19:54.285Z,102057.19
2022-11-30T12:22:54.917Z,102054.59
2022-11-30T12:25:26.575Z,102060.88
2022-11-30T12:28:06.064Z,102061.69
2022-11-30T12:31:11.781Z,102058.06
2022-11-30T12:33:54.107Z,102056.50
2022-11-30T12:36:54.644Z,102064.41
2022-11-30T12:39:24.291Z,102062.13
2022-11-30T12:42:23.563Z,102055.38
2022-11-30T12:45:17.679Z,102036.06
2022-11-30T12:48:11.783Z,102021.94
2022-11-30T12:51:15.178Z,102069.72
2022-11-30T12:58:37.731Z,101990.16
2022-11-30T13:05:50.024Z,101992.38
2022-11-30T13:09:05.522Z,102074.09
2022-11-30T13:18:54.155Z,102025.19
2022-11-30T13:22:07.007Z,101986.75
2022-11-30T13:26:06.874Z,102062.56
2022-11-30T13:32:27.937Z,102063.94
2022-11-30T13:39:49.746Z,101941.41
2022-11-30T13:42:17.854Z,102065.16
2022-11-30T14:02:21.353Z,102011.56
2022-11-30T14:06:38.435Z,101979.91
2022-11-30T14:08:49.283Z,102070.03
2022-11-30T14:15:52.902Z,102087.31
2022-11-30T14:22:39.542Z,102066.13
2022-11-30T14:25:56.676Z,102071.72
2022-11-30T14:32:32.166Z,102085.88
2022-11-30T14:36:15.899Z,102106.34
2022-11-30T14:38:45.808Z,102103.81
2022-11-30T14:41:35.602Z,102104.97
2022-11-30T14:48:17.442Z,102092.59
2022-11-30T14:51:19.642Z,102074.00
2022-11-30T14:57:45.183Z,102112.66
2022-11-30T15:00:20.086Z,102029.94
2022-11-30T15:02:59.798Z,102089.06
2022-11-30T15:05:31.050Z,102013.91
2022-11-30T15:07:59.250Z,102032.28
2022-11-30T15:10:34.362Z,102065.06
2022-11-30T15:13:02.726Z,102035.53
2022-11-30T15:15:52.826Z,102114.31
2022-11-30T15:18:22.433Z,102114.72
2022-11-30T15:20:56.203Z,102102.47
2022-11-30T15:23:23.365Z,101977.69
2022-11-30T15:26:06.220Z,102109.13
2022-11-30T15:28:41.437Z,102074.69
2022-11-30T15:31:14.561Z,102105.06
2022-11-30T15:33:47.205Z,102102.13
2022-11-30T15:36:31.280Z,102095.47
2022-11-30T15:39:05.220Z,102093.81
2022-11-30T15:41:34.136Z,101995.91
2022-11-30T15:44:02.379Z,102089.63
2022-11-30T15:46:32.297Z,102126.66
2022-11-30T15:49:26.513Z,102125.94
2022-11-30T15:52:19.499Z,102126.03
2022-11-30T15:54:58.901Z,102117.00
2022-11-30T15:57:27.823Z,102119.78
2022-11-30T16:00:09.142Z,102139.13
2022-11-30T16:02:37.584Z,102131.81
2022-11-30T16:05:22.956Z,102146.19
2022-11-30T16:08:00.109Z,102145.34
2022-11-30T16:10:39.375Z,102107.91
2022-11-30T16:13:06.626Z,102154.81
2022-11-30T16:15:36.186Z,102154.88
2022-11-30T16:18:13.439Z,102134.66
2022-11-30T16:20:43.523Z,102148.22
2022-11-30T16:23:15.422Z,102151.56
2022-11-30T16:25:43.513Z,102146.25
2022-11-30T16:28:11.954Z,102161.50
2022-11-30T16:30:40.329Z,102159.75
2022-11-30T16:33:13.656Z,102154.03
2022-11-30T16:35:54.730Z,102173.28
2022-11-30T16:38:21.679Z,102169.00
2022-11-30T16:40:48.391Z,102170.06
2022-11-30T16:43:15.425Z,102168.28
2022-11-30T16:45:44.196Z,102166.72
2022-11-30T16:48:10.905Z,102167.66
2022-11-30T16:50:37.755Z,102166.00
2022-11-30T16:53:05.454Z,102170.25
2022-11-30T16:55:34.857Z,102168.59
2022-11-30T16:58:02.026Z,102171.19
2022-11-30T17:00:28.944Z,102174.59
2022-11-30T17:03:08.489Z,102177.31
2022-11-30T17:05:39.652Z,102167.22
2022-11-30T17:08:06.428Z,102155.75
2022-11-30T17:10:40.566Z,102177.69
2022-11-30T17:13:07.226Z,102179.34
2022-11-30T17:15:33.874Z,102170.94
2022-11-30T17:18:00.634Z,102184.28
2022-11-30T17:20:27.924Z,102185.19
2022-11-30T17:22:54.736Z,102190.28
2022-11-30T17:25:23.399Z,102167.59
2022-11-30T17:27:51.059Z,102187.25
2022-11-30T17:30:20.116Z,102181.34
2022-11-30T17:32:47.330Z,102192.31
2022-11-30T17:35:14.587Z,102194.91
2022-11-30T17:37:41.264Z,102197.44
2022-11-30T17:40:11.553Z,102198.28
2022-11-30T17:42:38.255Z,102196.38
2022-11-30T17:45:05.701Z,102199.19
2022-11-30T17:47:32.509Z,102195.97
2022-11-30T17:49:59.160Z,102207.00
2022-11-30T17:52:25.846Z,102209.66
2022-11-30T17:54:52.768Z,102205.22
2022-11-30T17:57:19.460Z,102168.69
2022-11-30T17:59:46.144Z,102195.50
2022-11-30T18:02:12.924Z,102187.19
2022-11-30T18:04:39.897Z,102218.84
2022-11-30T18:07:06.681Z,102218.03
2022-11-30T18:09:42.356Z,102166.69
2022-11-30T18:12:13.330Z,102120.97
2022-11-30T18:14:40.180Z,102208.41
2022-11-30T18:17:07.183Z,102213.50
2022-11-30T18:19:33.895Z,102218.28
2022-11-30T18:22:00.582Z,102199.69
2022-11-30T18:24:27.230Z,102217.47
2022-11-30T18:26:53.895Z,102212.72
2022-11-30T18:29:21.136Z,102224.03
2022-11-30T18:31:51.474Z,102225.81
2022-11-30T18:34:18.264Z,102227.53
2022-11-30T18:36:44.983Z,102222.75
2022-11-30T18:39:11.612Z,102227.13
2022-11-30T18:41:38.323Z,102225.53
2022-11-30T18:44:05.233Z,102238.03
2022-11-30T18:46:32.079Z,102237.94
2022-11-30T18:48:59.673Z,102238.03
2022-11-30T18:51:29.294Z,102234.50
2022-11-30T18:54:05.998Z,102215.44
2022-11-30T18:56:37.555Z,102237.38
2022-11-30T18:59:06.892Z,102236.44
2022-11-30T19:01:34.160Z,102241.66
2022-11-30T19:04:06.606Z,102219.91
2022-11-30T19:06:34.643Z,102232.31
2022-11-30T19:09:05.216Z,102238.97
2022-11-30T19:11:33.522Z,102208.53
2022-11-30T19:14:01.175Z,102227.47
2022-11-30T19:16:29.548Z,102242.41
2022-11-30T19:19:41.579Z,102199.38
2022-11-30T19:22:08.175Z,102247.59
2022-11-30T19:24:36.206Z,102221.56
2022-11-30T19:27:02.875Z,102233.53
2022-11-30T19:29:29.584Z,102248.41
2022-11-30T19:31:56.201Z,102234.44
2022-11-30T19:34:22.902Z,102257.03
2022-11-30T19:36:49.684Z,102252.97
2022-11-30T19:39:16.416Z,102253.72
2022-11-30T19:41:49.123Z,102224.00
2022-11-30T19:44:16.045Z,102217.25
2022-11-30T19:46:43.310Z,102277.81
2022-11-30T19:49:10.602Z,102249.38
2022-11-30T19:51:37.205Z,102269.47
2022-11-30T19:54:04.085Z,102258.56
2022-11-30T19:56:32.399Z,102276.78
2022-11-30T19:59:04.551Z,102273.44
2022-11-30T20:01:32.664Z,102239.28
2022-11-30T20:03:59.375Z,102282.91
2022-11-30T20:06:28.925Z,102272.72
2022-11-30T20:08:56.163Z,102282.91
2022-11-30T20:11:23.464Z,102258.00
2022-11-30T20:13:51.561Z,102269.66
2022-11-30T20:16:20.545Z,102271.31
2022-11-30T20:18:53.879Z,102258.84
2022-11-30T20:21:26.373Z,102264.69
2022-11-30T20:23:57.900Z,102269.47
2022-11-30T20:27:13.593Z,102169.44
2022-11-30T20:29:40.283Z,102286.97
2022-11-30T20:32:07.445Z,102271.13
2022-11-30T20:34:39.707Z,102273.66
2022-11-30T20:37:09.101Z,102280.50
2022-11-30T20:39:37.185Z,102266.13
2022-11-30T20:42:05.556Z,102244.28
2022-11-30T20:44:32.195Z,102266.78
2022-11-30T20:46:59.017Z,102276.50
2022-11-30T20:49:25.749Z,102273.38
2022-11-30T20:51:52.982Z,102282.63
2022-11-30T20:54:19.955Z,102266.78
2022-11-30T20:56:50.699Z,102276.88
2022-11-30T20:59:22.331Z,102285.41
2022-11-30T21:01:49.213Z,102285.22
2022-11-30T21:04:15.908Z,102244.28
2022-11-30T21:06:45.723Z,102281.75
2022-11-30T21:09:18.189Z,102273.38
2022-11-30T21:11:46.031Z,102290.31
2022-11-30T21:14:13.006Z,102271.88
2022-11-30T21:16:40.345Z,102286.22
2022-11-30T21:19:07.214Z,102298.19
2022-11-30T21:21:35.501Z,102294.03
2022-11-30T21:24:05.793Z,102294.75
2022-11-30T21:26:43.574Z,102293.00
2022-11-30T21:29:13.344Z,102283.81
2022-11-30T21:31:40.373Z,102301.69
2022-11-30T21:34:07.123Z,102300.22
2022-11-30T21:36:33.848Z,102294.03
2022-11-30T21:39:06.748Z,102284.88
2022-11-30T21:41:36.307Z,102292.44
2022-11-30T21:44:04.009Z,102296.50
2022-11-30T21:46:31.043Z,102269.94
2022-11-30T21:48:58.016Z,102296.50
2022-11-30T21:51:26.931Z,102287.47
2022-11-30T21:53:57.177Z,102299.94
2022-11-30T21:56:29.236Z,102295.50
2022-11-30T21:59:00.044Z,102299.03
2022-11-30T22:01:32.524Z,102294.75
2022-11-30T22:04:00.906Z,102291.59
2022-11-30T22:06:29.773Z,102293.72
2022-11-30T22:09:03.780Z,102291.44
2022-11-30T22:11:54.417Z,102280.03
2022-11-30T22:14:21.210Z,102299.09
2022-11-30T22:16:47.839Z,102299.31
2022-11-30T22:19:15.791Z,102292.44
2022-11-30T22:21:48.233Z,102275.06
2022-11-30T22:24:16.544Z,102289.13
2022-11-30T22:26:45.209Z,102306.16
2022-11-30T22:29:17.398Z,102285.16
2022-11-30T22:31:46.995Z,102296.91
2022-11-30T22:34:14.172Z,102284.28
2022-11-30T22:36:42.978Z,102290.06
2022-11-30T22:39:13.922Z,102298.28
2022-11-30T22:41:41.958Z,102256.63
2022-11-30T22:44:12.613Z,102290.88
2022-11-30T22:46:39.690Z,102304.22
2022-11-30T22:49:10.520Z,102284.41
2022-11-30T22:51:38.227Z,102301.28
2022-11-30T22:54:06.831Z,102311.25
2022-11-30T22:56:36.060Z,102308.59
2022-11-30T22:59:04.281Z,102303.56
2022-11-30T23:01:36.979Z,102302.47
2022-11-30T23:04:06.402Z,102307.72
2022-11-30T23:06:35.093Z,102293.38
2022-11-30T23:09:02.646Z,102300.78
2022-11-30T23:11:30.074Z,102284.41
2022-11-30T23:13:57.152Z,102300.97
2022-11-30T23:16:24.031Z,102313.56
2022-11-30T23:18:57.218Z,102314.59
2022-11-30T23:21:25.415Z,102312.84
2022-11-30T23:23:52.908Z,102308.59
2022-11-30T23:26:22.512Z,102296.91
2022-11-30T23:28:51.386Z,102308.59
2022-11-30T23:31:32.962Z,102306.16
2022-11-30T23:34:06.957Z,102315.34
2022-11-30T23:36:35.074Z,102314.41
2022-11-30T23:39:05.965Z,102317.84
2022-11-30T23:41:33.229Z,102297.00
2022-11-30T23:44:00.200Z,102318.75
2022-11-30T23:46:26.897Z,102309.41
2022-11-30T23:48:55.012Z,102307.66
2022-11-30T23:51:22.325Z,102299.41
2022-11-30T23:53:49.130Z,102285.06
2022-11-30T23:56:18.080Z,102296.81
2022-11-30T23:58:45.357Z,102291.81
